Terminal Aerodrome Forecast
Issued by NWS Charleston, SC

Current Version | Previous Version | Text Only | Print | Product List | Glossary On
Versions: 1 2 3 4 5 6 7 8 9 10 11 12 13 14 15 16 17 18 19 20 21 22
000
FTUS42 KCHS 290534
TAFSAV
TAF
KSAV 290534Z 2906/3006 04006KT P6SM SCT010 SCT030 BKN150
     FM291400 07009KT P6SM VCSH SCT020 BKN080
     FM291900 09012KT 6SM -SHRA SCT025 BKN035
     FM300000 06003KT P6SM VCSH SCT015 BKN035=

USA.gov is the U.S. government's official web portal to all federal, state and local government web resources and services.